sensor_id;sensor_type;location;lat;lon;timestamp;temperature;humidity
52867;DHT22;38739;53.324;6.862;2023-05-21T00:00:58;13.90;99.90
52867;DHT22;38739;53.324;6.862;2023-05-21T00:03:25;13.90;99.90
52867;DHT22;38739;53.324;6.862;2023-05-21T00:05:52;13.90;99.90
52867;DHT22;38739;53.324;6.862;2023-05-21T00:08:19;13.90;99.90
52867;DHT22;38739;53.324;6.862;2023-05-21T00:10:45;13.90;99.90
52867;DHT22;38739;53.324;6.862;2023-05-21T00:13:11;13.90;99.90
52867;DHT22;38739;53.324;6.862;2023-05-21T00:15:37;13.90;99.90
52867;DHT22;38739;53.324;6.862;2023-05-21T00:18:03;13.90;99.90
52867;DHT22;38739;53.324;6.862;2023-05-21T00:20:29;13.90;99.90
52867;DHT22;38739;53.324;6.862;2023-05-21T00:22:59;13.90;99.90
52867;DHT22;38739;53.324;6.862;2023-05-21T00:25:28;13.90;99.90
52867;DHT22;38739;53.324;6.862;2023-05-21T00:27:54;13.90;99.90
52867;DHT22;38739;53.324;6.862;2023-05-21T00:30:20;13.90;99.90
52867;DHT22;38739;53.324;6.862;2023-05-21T00:32:46;13.80;99.90
52867;DHT22;38739;53.324;6.862;2023-05-21T00:35:12;13.90;99.90
52867;DHT22;38739;53.324;6.862;2023-05-21T00:37:38;13.80;99.90
52867;DHT22;38739;53.324;6.862;2023-05-21T00:40:05;13.80;99.90
52867;DHT22;38739;53.324;6.862;2023-05-21T00:42:33;13.80;99.90
52867;DHT22;38739;53.324;6.862;2023-05-21T00:45:04;13.80;99.90
52867;DHT22;38739;53.324;6.862;2023-05-21T00:47:30;13.80;99.90
52867;DHT22;38739;53.324;6.862;2023-05-21T00:49:56;13.80;99.90
52867;DHT22;38739;53.324;6.862;2023-05-21T00:52:22;13.80;99.90
52867;DHT22;38739;53.324;6.862;2023-05-21T00:54:51;13.80;99.90
52867;DHT22;38739;53.324;6.862;2023-05-21T00:57:21;13.80;99.90
52867;DHT22;38739;53.324;6.862;2023-05-21T00:59:50;13.70;99.90
52867;DHT22;38739;53.324;6.862;2023-05-21T01:02:16;13.70;99.90
52867;DHT22;38739;53.324;6.862;2023-05-21T01:04:46;13.70;99.90
52867;DHT22;38739;53.324;6.862;2023-05-21T01:07:12;13.70;99.90
52867;DHT22;38739;53.324;6.862;2023-05-21T01:09:42;13.60;99.90
52867;DHT22;38739;53.324;6.862;2023-05-21T01:12:08;13.60;99.90
52867;DHT22;38739;53.324;6.862;2023-05-21T01:14:36;13.60;99.90
52867;DHT22;38739;53.324;6.862;2023-05-21T01:17:03;13.60;99.90
52867;DHT22;38739;53.324;6.862;2023-05-21T01:19:30;13.60;99.90
52867;DHT22;38739;53.324;6.862;2023-05-21T01:22:06;13.60;99.90
52867;DHT22;38739;53.324;6.862;2023-05-21T01:24:32;13.60;99.90
52867;DHT22;38739;53.324;6.862;2023-05-21T01:27:01;13.50;99.90
52867;DHT22;38739;53.324;6.862;2023-05-21T01:29:27;13.50;99.90
52867;DHT22;38739;53.324;6.862;2023-05-21T01:34:43;13.50;99.90
52867;DHT22;38739;53.324;6.862;2023-05-21T01:37:30;13.50;99.90
52867;DHT22;38739;53.324;6.862;2023-05-21T01:40:10;13.50;99.90
52867;DHT22;38739;53.324;6.862;2023-05-21T01:42:41;13.50;99.90
52867;DHT22;38739;53.324;6.862;2023-05-21T01:45:09;13.50;99.90
52867;DHT22;38739;53.324;6.862;2023-05-21T01:47:36;13.50;99.90
52867;DHT22;38739;53.324;6.862;2023-05-21T01:50:04;13.50;99.90
52867;DHT22;38739;53.324;6.862;2023-05-21T01:52:30;13.50;99.90
52867;DHT22;38739;53.324;6.862;2023-05-21T01:54:56;13.50;99.90
52867;DHT22;38739;53.324;6.862;2023-05-21T01:57:22;13.40;99.90
52867;DHT22;38739;53.324;6.862;2023-05-21T01:59:48;13.40;99.90
52867;DHT22;38739;53.324;6.862;2023-05-21T02:02:14;13.50;99.90
52867;DHT22;38739;53.324;6.862;2023-05-21T02:04:39;13.40;99.90
52867;DHT22;38739;53.324;6.862;2023-05-21T02:07:06;13.40;99.90
52867;DHT22;38739;53.324;6.862;2023-05-21T02:09:31;13.40;99.90
52867;DHT22;38739;53.324;6.862;2023-05-21T02:11:57;13.40;99.90
52867;DHT22;38739;53.324;6.862;2023-05-21T02:14:23;13.40;99.90
52867;DHT22;38739;53.324;6.862;2023-05-21T02:16:49;13.40;99.90
52867;DHT22;38739;53.324;6.862;2023-05-21T02:19:17;13.30;99.90
52867;DHT22;38739;53.324;6.862;2023-05-21T02:21:43;13.30;99.90
52867;DHT22;38739;53.324;6.862;2023-05-21T02:24:08;13.30;99.90
52867;DHT22;38739;53.324;6.862;2023-05-21T02:26:34;13.20;99.90
52867;DHT22;38739;53.324;6.862;2023-05-21T02:29:00;13.20;99.90
52867;DHT22;38739;53.324;6.862;2023-05-21T02:31:25;13.20;99.90
52867;DHT22;38739;53.324;6.862;2023-05-21T02:33:51;13.20;99.90
52867;DHT22;38739;53.324;6.862;2023-05-21T02:36:17;13.10;99.90
52867;DHT22;38739;53.324;6.862;2023-05-21T02:38:43;13.10;99.90
52867;DHT22;38739;53.324;6.862;2023-05-21T02:41:12;13.10;99.90
52867;DHT22;38739;53.324;6.862;2023-05-21T02:43:38;13.10;99.90
52867;DHT22;38739;53.324;6.862;2023-05-21T02:46:05;13.10;99.90
52867;DHT22;38739;53.324;6.862;2023-05-21T02:48:32;13.00;99.90
52867;DHT22;38739;53.324;6.862;2023-05-21T02:50:58;13.00;99.90
52867;DHT22;38739;53.324;6.862;2023-05-21T02:53:24;13.10;99.90
52867;DHT22;38739;53.324;6.862;2023-05-21T02:55:50;13.10;99.90
52867;DHT22;38739;53.324;6.862;2023-05-21T02:58:15;13.10;99.90
52867;DHT22;38739;53.324;6.862;2023-05-21T03:00:41;13.10;99.90
52867;DHT22;38739;53.324;6.862;2023-05-21T03:03:07;13.10;99.90
52867;DHT22;38739;53.324;6.862;2023-05-21T03:05:32;13.10;99.90
52867;DHT22;38739;53.324;6.862;2023-05-21T03:07:58;13.10;99.90
52867;DHT22;38739;53.324;6.862;2023-05-21T03:10:24;13.10;99.90
52867;DHT22;38739;53.324;6.862;2023-05-21T03:12:49;13.10;99.90
52867;DHT22;38739;53.324;6.862;2023-05-21T03:15:16;13.10;99.90
52867;DHT22;38739;53.324;6.862;2023-05-21T03:17:42;13.10;99.90
52867;DHT22;38739;53.324;6.862;2023-05-21T03:20:09;13.10;99.90
52867;DHT22;38739;53.324;6.862;2023-05-21T03:22:42;13.10;99.90
52867;DHT22;38739;53.324;6.862;2023-05-21T03:25:09;13.10;99.90
52867;DHT22;38739;53.324;6.862;2023-05-21T03:27:36;13.10;99.90
52867;DHT22;38739;53.324;6.862;2023-05-21T03:30:02;13.10;99.90
52867;DHT22;38739;53.324;6.862;2023-05-21T03:32:27;13.10;99.90
52867;DHT22;38739;53.324;6.862;2023-05-21T03:34:53;13.10;99.90
52867;DHT22;38739;53.324;6.862;2023-05-21T03:37:19;13.10;99.90
52867;DHT22;38739;53.324;6.862;2023-05-21T03:39:44;13.10;99.90
52867;DHT22;38739;53.324;6.862;2023-05-21T03:42:10;13.10;99.90
52867;DHT22;38739;53.324;6.862;2023-05-21T03:44:38;13.00;99.90
52867;DHT22;38739;53.324;6.862;2023-05-21T03:47:04;13.10;99.90
52867;DHT22;38739;53.324;6.862;2023-05-21T03:49:30;13.10;99.90
52867;DHT22;38739;53.324;6.862;2023-05-21T03:51:55;13.10;99.90
52867;DHT22;38739;53.324;6.862;2023-05-21T03:54:21;13.10;99.90
52867;DHT22;38739;53.324;6.862;2023-05-21T03:56:47;13.00;99.90
52867;DHT22;38739;53.324;6.862;2023-05-21T03:59:12;13.00;99.90
52867;DHT22;38739;53.324;6.862;2023-05-21T04:01:38;13.00;99.90
52867;DHT22;38739;53.324;6.862;2023-05-21T04:04:04;13.00;99.90
52867;DHT22;38739;53.324;6.862;2023-05-21T04:06:30;13.00;99.90
52867;DHT22;38739;53.324;6.862;2023-05-21T04:08:55;13.00;99.90
52867;DHT22;38739;53.324;6.862;2023-05-21T04:11:21;13.00;99.90
52867;DHT22;38739;53.324;6.862;2023-05-21T04:13:47;13.00;99.90
52867;DHT22;38739;53.324;6.862;2023-05-21T04:16:13;13.00;99.90
52867;DHT22;38739;53.324;6.862;2023-05-21T04:18:39;13.10;99.90
52867;DHT22;38739;53.324;6.862;2023-05-21T04:21:08;13.10;99.90
52867;DHT22;38739;53.324;6.862;2023-05-21T04:23:34;13.10;99.90
52867;DHT22;38739;53.324;6.862;2023-05-21T04:26:01;13.10;99.90
52867;DHT22;38739;53.324;6.862;2023-05-21T04:28:27;13.10;99.90
52867;DHT22;38739;53.324;6.862;2023-05-21T04:30:53;13.10;99.90
52867;DHT22;38739;53.324;6.862;2023-05-21T04:33:21;13.10;99.90
52867;DHT22;38739;53.324;6.862;2023-05-21T04:35:50;13.10;99.90
52867;DHT22;38739;53.324;6.862;2023-05-21T04:38:19;13.10;99.90
52867;DHT22;38739;53.324;6.862;2023-05-21T04:40:51;13.20;99.90
52867;DHT22;38739;53.324;6.862;2023-05-21T04:43:17;13.20;99.90
52867;DHT22;38739;53.324;6.862;2023-05-21T04:45:50;13.20;99.90
52867;DHT22;38739;53.324;6.862;2023-05-21T04:48:16;13.20;99.90
52867;DHT22;38739;53.324;6.862;2023-05-21T04:50:42;13.30;99.90
52867;DHT22;38739;53.324;6.862;2023-05-21T04:53:08;13.30;99.90
52867;DHT22;38739;53.324;6.862;2023-05-21T04:55:34;13.40;99.90
52867;DHT22;38739;53.324;6.862;2023-05-21T04:58:05;13.40;99.90
52867;DHT22;38739;53.324;6.862;2023-05-21T05:00:38;13.40;99.90
52867;DHT22;38739;53.324;6.862;2023-05-21T05:03:04;13.40;99.90
52867;DHT22;38739;53.324;6.862;2023-05-21T05:05:30;13.40;99.90
52867;DHT22;38739;53.324;6.862;2023-05-21T05:07:56;13.40;99.90
52867;DHT22;38739;53.324;6.862;2023-05-21T05:10:22;13.40;99.90
52867;DHT22;38739;53.324;6.862;2023-05-21T05:12:48;13.30;99.90
52867;DHT22;38739;53.324;6.862;2023-05-21T05:15:14;13.30;99.90
52867;DHT22;38739;53.324;6.862;2023-05-21T05:17:40;13.30;99.90
52867;DHT22;38739;53.324;6.862;2023-05-21T05:20:07;13.30;99.90
52867;DHT22;38739;53.324;6.862;2023-05-21T05:22:32;13.30;99.90
52867;DHT22;38739;53.324;6.862;2023-05-21T05:24:58;13.30;99.90
52867;DHT22;38739;53.324;6.862;2023-05-21T05:27:24;13.30;99.90
52867;DHT22;38739;53.324;6.862;2023-05-21T05:29:53;13.30;99.90
52867;DHT22;38739;53.324;6.862;2023-05-21T05:32:18;13.30;99.90
52867;DHT22;38739;53.324;6.862;2023-05-21T05:34:44;13.30;99.90
52867;DHT22;38739;53.324;6.862;2023-05-21T05:37:11;13.40;99.90
52867;DHT22;38739;53.324;6.862;2023-05-21T05:39:36;13.40;99.90
52867;DHT22;38739;53.324;6.862;2023-05-21T05:42:02;13.40;99.90
52867;DHT22;38739;53.324;6.862;2023-05-21T05:44:28;13.50;99.90
52867;DHT22;38739;53.324;6.862;2023-05-21T05:46:54;13.50;99.90
52867;DHT22;38739;53.324;6.862;2023-05-21T05:49:19;13.60;99.90
52867;DHT22;38739;53.324;6.862;2023-05-21T05:51:45;13.60;99.90
52867;DHT22;38739;53.324;6.862;2023-05-21T05:54:11;13.60;99.90
52867;DHT22;38739;53.324;6.862;2023-05-21T05:56:36;13.60;99.90
52867;DHT22;38739;53.324;6.862;2023-05-21T05:59:02;13.70;99.90
52867;DHT22;38739;53.324;6.862;2023-05-21T06:01:28;13.70;99.90
52867;DHT22;38739;53.324;6.862;2023-05-21T06:03:53;13.80;99.90
52867;DHT22;38739;53.324;6.862;2023-05-21T06:06:19;13.80;99.90
52867;DHT22;38739;53.324;6.862;2023-05-21T06:08:45;13.90;99.90
52867;DHT22;38739;53.324;6.862;2023-05-21T06:11:11;13.90;99.90
52867;DHT22;38739;53.324;6.862;2023-05-21T06:13:36;13.90;99.90
52867;DHT22;38739;53.324;6.862;2023-05-21T06:16:02;13.90;99.90
52867;DHT22;38739;53.324;6.862;2023-05-21T06:18:28;14.00;99.90
52867;DHT22;38739;53.324;6.862;2023-05-21T06:20:54;14.00;99.90
52867;DHT22;38739;53.324;6.862;2023-05-21T06:23:20;14.00;99.90
52867;DHT22;38739;53.324;6.862;2023-05-21T06:25:45;14.00;99.90
52867;DHT22;38739;53.324;6.862;2023-05-21T06:28:11;14.00;99.90
52867;DHT22;38739;53.324;6.862;2023-05-21T06:30:37;14.00;99.90
52867;DHT22;38739;53.324;6.862;2023-05-21T06:33:02;14.00;99.90
52867;DHT22;38739;53.324;6.862;2023-05-21T06:35:28;14.10;99.90
52867;DHT22;38739;53.324;6.862;2023-05-21T06:37:54;14.10;99.90
52867;DHT22;38739;53.324;6.862;2023-05-21T06:40:19;14.20;99.90
52867;DHT22;38739;53.324;6.862;2023-05-21T06:42:46;14.20;99.90
52867;DHT22;38739;53.324;6.862;2023-05-21T06:45:11;14.30;99.90
52867;DHT22;38739;53.324;6.862;2023-05-21T06:47:37;14.40;99.90
52867;DHT22;38739;53.324;6.862;2023-05-21T06:50:03;14.40;99.90
52867;DHT22;38739;53.324;6.862;2023-05-21T06:52:29;14.50;99.90
52867;DHT22;38739;53.324;6.862;2023-05-21T06:54:56;14.50;99.90
52867;DHT22;38739;53.324;6.862;2023-05-21T06:57:21;14.50;99.90
52867;DHT22;38739;53.324;6.862;2023-05-21T06:59:47;14.70;99.90
52867;DHT22;38739;53.324;6.862;2023-05-21T07:02:13;14.80;99.90
52867;DHT22;38739;53.324;6.862;2023-05-21T07:04:38;14.90;99.90
52867;DHT22;38739;53.324;6.862;2023-05-21T07:07:04;14.90;99.90
52867;DHT22;38739;53.324;6.862;2023-05-21T07:09:30;15.00;99.90
52867;DHT22;38739;53.324;6.862;2023-05-21T07:11:56;15.10;99.90
52867;DHT22;38739;53.324;6.862;2023-05-21T07:14:23;15.30;99.90
52867;DHT22;38739;53.324;6.862;2023-05-21T07:16:49;15.40;99.90
52867;DHT22;38739;53.324;6.862;2023-05-21T07:19:15;15.30;99.90
52867;DHT22;38739;53.324;6.862;2023-05-21T07:21:40;15.50;99.90
52867;DHT22;38739;53.324;6.862;2023-05-21T07:24:06;15.60;99.90
52867;DHT22;38739;53.324;6.862;2023-05-21T07:26:32;15.60;99.90
52867;DHT22;38739;53.324;6.862;2023-05-21T07:28:58;15.70;99.90
52867;DHT22;38739;53.324;6.862;2023-05-21T07:31:23;15.80;99.90
52867;DHT22;38739;53.324;6.862;2023-05-21T07:33:49;15.90;99.90
52867;DHT22;38739;53.324;6.862;2023-05-21T07:36:15;15.90;99.90
52867;DHT22;38739;53.324;6.862;2023-05-21T07:38:42;16.00;99.90
52867;DHT22;38739;53.324;6.862;2023-05-21T07:41:08;16.00;99.90
52867;DHT22;38739;53.324;6.862;2023-05-21T07:43:34;16.10;99.90
52867;DHT22;38739;53.324;6.862;2023-05-21T07:46:00;16.20;99.90
52867;DHT22;38739;53.324;6.862;2023-05-21T07:48:26;16.40;99.90
52867;DHT22;38739;53.324;6.862;2023-05-21T07:50:51;16.50;99.90
52867;DHT22;38739;53.324;6.862;2023-05-21T07:53:17;16.70;99.90
52867;DHT22;38739;53.324;6.862;2023-05-21T07:55:43;16.90;99.90
52867;DHT22;38739;53.324;6.862;2023-05-21T07:58:18;16.90;99.90
52867;DHT22;38739;53.324;6.862;2023-05-21T08:00:46;17.00;99.90
52867;DHT22;38739;53.324;6.862;2023-05-21T08:03:16;17.20;99.90
52867;DHT22;38739;53.324;6.862;2023-05-21T08:05:43;17.30;99.90
52867;DHT22;38739;53.324;6.862;2023-05-21T08:08:19;17.40;99.90
52867;DHT22;38739;53.324;6.862;2023-05-21T08:10:46;17.40;99.90
52867;DHT22;38739;53.324;6.862;2023-05-21T08:13:12;17.50;99.90
52867;DHT22;38739;53.324;6.862;2023-05-21T08:15:38;17.50;99.90
52867;DHT22;38739;53.324;6.862;2023-05-21T08:18:04;17.40;99.90
52867;DHT22;38739;53.324;6.862;2023-05-21T08:20:31;17.50;99.90
52867;DHT22;38739;53.324;6.862;2023-05-21T08:22:59;17.60;99.90
52867;DHT22;38739;53.324;6.862;2023-05-21T08:25:26;17.60;99.90
52867;DHT22;38739;53.324;6.862;2023-05-21T08:27:52;17.60;99.90
52867;DHT22;38739;53.324;6.862;2023-05-21T08:30:18;17.60;99.90
52867;DHT22;38739;53.324;6.862;2023-05-21T08:32:43;17.60;99.90
52867;DHT22;38739;53.324;6.862;2023-05-21T08:35:09;17.60;99.90
52867;DHT22;38739;53.324;6.862;2023-05-21T08:37:35;17.70;99.90
52867;DHT22;38739;53.324;6.862;2023-05-21T08:40:01;17.80;99.90
52867;DHT22;38739;53.324;6.862;2023-05-21T08:42:38;17.90;99.90
52867;DHT22;38739;53.324;6.862;2023-05-21T08:45:05;17.90;99.90
52867;DHT22;38739;53.324;6.862;2023-05-21T08:47:34;18.00;99.90
52867;DHT22;38739;53.324;6.862;2023-05-21T08:50:06;18.10;99.90
52867;DHT22;38739;53.324;6.862;2023-05-21T08:52:33;18.10;99.90
52867;DHT22;38739;53.324;6.862;2023-05-21T08:55:02;18.10;99.90
52867;DHT22;38739;53.324;6.862;2023-05-21T08:57:29;18.10;99.90
52867;DHT22;38739;53.324;6.862;2023-05-21T08:59:59;18.20;99.90
52867;DHT22;38739;53.324;6.862;2023-05-21T09:02:26;18.20;99.90
52867;DHT22;38739;53.324;6.862;2023-05-21T09:04:55;18.10;99.90
52867;DHT22;38739;53.324;6.862;2023-05-21T09:07:25;18.00;99.90
52867;DHT22;38739;53.324;6.862;2023-05-21T09:10:00;18.10;99.90
52867;DHT22;38739;53.324;6.862;2023-05-21T09:12:27;18.20;99.90
52867;DHT22;38739;53.324;6.862;2023-05-21T09:14:53;18.20;99.90
52867;DHT22;38739;53.324;6.862;2023-05-21T09:17:19;18.20;99.90
52867;DHT22;38739;53.324;6.862;2023-05-21T09:20:04;18.30;99.90
52867;DHT22;38739;53.324;6.862;2023-05-21T09:22:41;18.30;99.90
52867;DHT22;38739;53.324;6.862;2023-05-21T09:25:08;18.40;99.90
52867;DHT22;38739;53.324;6.862;2023-05-21T09:27:34;18.50;99.90
52867;DHT22;38739;53.324;6.862;2023-05-21T09:30:06;18.60;99.90
52867;DHT22;38739;53.324;6.862;2023-05-21T09:32:33;19.00;99.90
52867;DHT22;38739;53.324;6.862;2023-05-21T09:35:25;19.20;99.90
52867;DHT22;38739;53.324;6.862;2023-05-21T09:37:52;19.30;99.90
52867;DHT22;38739;53.324;6.862;2023-05-21T09:40:19;19.30;99.90
52867;DHT22;38739;53.324;6.862;2023-05-21T09:42:53;19.10;99.90
52867;DHT22;38739;53.324;6.862;2023-05-21T09:45:26;19.00;99.90
52867;DHT22;38739;53.324;6.862;2023-05-21T09:47:54;19.10;99.90
52867;DHT22;38739;53.324;6.862;2023-05-21T09:50:24;19.30;99.90
52867;DHT22;38739;53.324;6.862;2023-05-21T09:52:54;19.20;99.90
52867;DHT22;38739;53.324;6.862;2023-05-21T09:55:24;19.10;99.90
52867;DHT22;38739;53.324;6.862;2023-05-21T09:57:51;19.00;99.90
52867;DHT22;38739;53.324;6.862;2023-05-21T10:00:22;19.20;99.90
52867;DHT22;38739;53.324;6.862;2023-05-21T10:02:52;19.20;99.90
52867;DHT22;38739;53.324;6.862;2023-05-21T10:05:19;19.40;99.90
52867;DHT22;38739;53.324;6.862;2023-05-21T10:07:50;19.40;99.90
52867;DHT22;38739;53.324;6.862;2023-05-21T10:10:18;19.40;99.90
52867;DHT22;38739;53.324;6.862;2023-05-21T10:12:46;19.20;99.90
52867;DHT22;38739;53.324;6.862;2023-05-21T10:15:14;19.00;99.90
52867;DHT22;38739;53.324;6.862;2023-05-21T10:17:41;18.80;99.90
52867;DHT22;38739;53.324;6.862;2023-05-21T10:20:10;18.60;99.90
52867;DHT22;38739;53.324;6.862;2023-05-21T10:22:37;18.60;99.90
52867;DHT22;38739;53.324;6.862;2023-05-21T10:25:05;18.70;99.90
52867;DHT22;38739;53.324;6.862;2023-05-21T10:27:31;19.00;99.90
52867;DHT22;38739;53.324;6.862;2023-05-21T10:29:58;19.20;99.90
52867;DHT22;38739;53.324;6.862;2023-05-21T10:32:25;19.30;99.90
52867;DHT22;38739;53.324;6.862;2023-05-21T10:34:53;19.50;99.90
52867;DHT22;38739;53.324;6.862;2023-05-21T10:37:22;19.60;99.90
52867;DHT22;38739;53.324;6.862;2023-05-21T10:39:49;19.90;99.90
52867;DHT22;38739;53.324;6.862;2023-05-21T10:45:58;19.90;99.90
52867;DHT22;38739;53.324;6.862;2023-05-21T10:54:22;20.20;99.90
52867;DHT22;38739;53.324;6.862;2023-05-21T10:57:17;20.20;99.90
52867;DHT22;38739;53.324;6.862;2023-05-21T10:59:46;20.50;99.90
52867;DHT22;38739;53.324;6.862;2023-05-21T11:02:14;20.20;99.90
52867;DHT22;38739;53.324;6.862;2023-05-21T11:04:40;20.20;99.90
52867;DHT22;38739;53.324;6.862;2023-05-21T11:07:11;20.20;99.90
52867;DHT22;38739;53.324;6.862;2023-05-21T11:09:37;20.40;99.90
52867;DHT22;38739;53.324;6.862;2023-05-21T11:12:03;20.60;99.90
52867;DHT22;38739;53.324;6.862;2023-05-21T11:17:18;20.20;99.90
52867;DHT22;38739;53.324;6.862;2023-05-21T11:20:05;20.40;99.90
52867;DHT22;38739;53.324;6.862;2023-05-21T11:22:34;20.40;99.90
52867;DHT22;38739;53.324;6.862;2023-05-21T11:25:01;20.50;99.90
52867;DHT22;38739;53.324;6.862;2023-05-21T11:27:47;20.50;99.90
52867;DHT22;38739;53.324;6.862;2023-05-21T11:30:18;20.40;99.90
52867;DHT22;38739;53.324;6.862;2023-05-21T11:35:58;20.90;99.90
52867;DHT22;38739;53.324;6.862;2023-05-21T11:38:32;20.90;99.90
52867;DHT22;38739;53.324;6.862;2023-05-21T11:41:04;20.90;99.90
52867;DHT22;38739;53.324;6.862;2023-05-21T11:43:30;20.90;99.90
52867;DHT22;38739;53.324;6.862;2023-05-21T11:45:56;20.90;99.90
52867;DHT22;38739;53.324;6.862;2023-05-21T11:48:25;20.80;99.90
52867;DHT22;38739;53.324;6.862;2023-05-21T11:50:51;20.70;99.90
52867;DHT22;38739;53.324;6.862;2023-05-21T11:53:17;20.60;99.90
52867;DHT22;38739;53.324;6.862;2023-05-21T11:55:43;20.80;99.90
52867;DHT22;38739;53.324;6.862;2023-05-21T11:58:12;20.90;99.90
52867;DHT22;38739;53.324;6.862;2023-05-21T12:00:39;21.00;99.90
52867;DHT22;38739;53.324;6.862;2023-05-21T12:03:05;21.30;99.90
52867;DHT22;38739;53.324;6.862;2023-05-21T12:05:48;21.50;99.90
52867;DHT22;38739;53.324;6.862;2023-05-21T12:08:23;21.70;99.90
52867;DHT22;38739;53.324;6.862;2023-05-21T12:10:59;21.70;99.90
52867;DHT22;38739;53.324;6.862;2023-05-21T12:13:26;21.80;99.90
52867;DHT22;38739;53.324;6.862;2023-05-21T12:15:55;21.70;99.90
52867;DHT22;38739;53.324;6.862;2023-05-21T12:18:21;21.50;99.90
52867;DHT22;38739;53.324;6.862;2023-05-21T12:20:47;21.50;99.90
52867;DHT22;38739;53.324;6.862;2023-05-21T12:23:22;21.50;99.90
52867;DHT22;38739;53.324;6.862;2023-05-21T12:25:48;21.60;99.90
52867;DHT22;38739;53.324;6.862;2023-05-21T12:28:14;21.50;99.90
52867;DHT22;38739;53.324;6.862;2023-05-21T12:30:40;21.50;99.90
52867;DHT22;38739;53.324;6.862;2023-05-21T12:33:06;21.50;99.90
52867;DHT22;38739;53.324;6.862;2023-05-21T12:35:31;21.80;99.90
52867;DHT22;38739;53.324;6.862;2023-05-21T12:38:00;21.90;99.90
52867;DHT22;38739;53.324;6.862;2023-05-21T12:40:36;22.40;99.90
52867;DHT22;38739;53.324;6.862;2023-05-21T12:43:05;22.40;99.90
52867;DHT22;38739;53.324;6.862;2023-05-21T12:45:31;22.30;99.90
52867;DHT22;38739;53.324;6.862;2023-05-21T12:48:01;22.30;99.90
52867;DHT22;38739;53.324;6.862;2023-05-21T12:50:27;22.60;99.90
52867;DHT22;38739;53.324;6.862;2023-05-21T12:52:57;22.90;99.90
52867;DHT22;38739;53.324;6.862;2023-05-21T12:55:23;23.10;99.90
52867;DHT22;38739;53.324;6.862;2023-05-21T12:58:05;23.10;99.90
52867;DHT22;38739;53.324;6.862;2023-05-21T13:00:33;23.30;99.90
52867;DHT22;38739;53.324;6.862;2023-05-21T13:02:58;23.60;99.90
52867;DHT22;38739;53.324;6.862;2023-05-21T13:05:26;23.70;99.90
52867;DHT22;38739;53.324;6.862;2023-05-21T13:07:51;23.40;99.90
52867;DHT22;38739;53.324;6.862;2023-05-21T13:10:17;23.50;99.90
52867;DHT22;38739;53.324;6.862;2023-05-21T13:12:43;23.90;99.90
52867;DHT22;38739;53.324;6.862;2023-05-21T13:15:09;24.60;99.90
52867;DHT22;38739;53.324;6.862;2023-05-21T13:17:35;25.30;99.90
52867;DHT22;38739;53.324;6.862;2023-05-21T13:20:14;25.70;99.90
52867;DHT22;38739;53.324;6.862;2023-05-21T13:22:42;25.40;99.90
52867;DHT22;38739;53.324;6.862;2023-05-21T13:25:12;25.40;99.90
52867;DHT22;38739;53.324;6.862;2023-05-21T13:27:40;25.40;99.90
52867;DHT22;38739;53.324;6.862;2023-05-21T13:30:07;24.90;99.90
52867;DHT22;38739;53.324;6.862;2023-05-21T13:32:35;25.00;99.90
52867;DHT22;38739;53.324;6.862;2023-05-21T13:35:01;25.00;99.90
52867;DHT22;38739;53.324;6.862;2023-05-21T13:37:27;25.20;99.90
52867;DHT22;38739;53.324;6.862;2023-05-21T13:39:53;25.10;99.90
52867;DHT22;38739;53.324;6.862;2023-05-21T13:42:18;24.90;99.90
52867;DHT22;38739;53.324;6.862;2023-05-21T13:44:46;24.80;99.90
52867;DHT22;38739;53.324;6.862;2023-05-21T13:47:12;24.60;99.90
52867;DHT22;38739;53.324;6.862;2023-05-21T13:49:38;24.60;99.90
52867;DHT22;38739;53.324;6.862;2023-05-21T13:52:05;24.40;99.90
52867;DHT22;38739;53.324;6.862;2023-05-21T13:54:31;24.30;99.90
52867;DHT22;38739;53.324;6.862;2023-05-21T13:56:57;24.20;99.90
52867;DHT22;38739;53.324;6.862;2023-05-21T13:59:23;24.60;99.90
52867;DHT22;38739;53.324;6.862;2023-05-21T14:01:48;24.80;99.90
52867;DHT22;38739;53.324;6.862;2023-05-21T14:04:17;24.50;99.90
52867;DHT22;38739;53.324;6.862;2023-05-21T14:06:44;24.70;99.90
52867;DHT22;38739;53.324;6.862;2023-05-21T14:09:10;25.10;99.90
52867;DHT22;38739;53.324;6.862;2023-05-21T14:11:36;25.20;99.90
52867;DHT22;38739;53.324;6.862;2023-05-21T14:14:03;25.10;99.90
52867;DHT22;38739;53.324;6.862;2023-05-21T14:16:29;25.10;99.90
52867;DHT22;38739;53.324;6.862;2023-05-21T14:18:56;24.80;99.90
52867;DHT22;38739;53.324;6.862;2023-05-21T14:21:22;24.90;99.90
52867;DHT22;38739;53.324;6.862;2023-05-21T14:23:48;24.90;99.90
52867;DHT22;38739;53.324;6.862;2023-05-21T14:26:15;25.20;99.90
52867;DHT22;38739;53.324;6.862;2023-05-21T14:28:42;25.10;99.90
52867;DHT22;38739;53.324;6.862;2023-05-21T14:31:08;25.10;99.90
52867;DHT22;38739;53.324;6.862;2023-05-21T14:33:35;25.20;99.90
52867;DHT22;38739;53.324;6.862;2023-05-21T14:36:01;25.50;99.90
52867;DHT22;38739;53.324;6.862;2023-05-21T14:38:27;25.50;99.90
52867;DHT22;38739;53.324;6.862;2023-05-21T14:40:54;25.60;99.90
52867;DHT22;38739;53.324;6.862;2023-05-21T14:43:20;25.80;99.90
52867;DHT22;38739;53.324;6.862;2023-05-21T14:45:46;25.80;99.90
52867;DHT22;38739;53.324;6.862;2023-05-21T14:48:11;25.80;99.90
52867;DHT22;38739;53.324;6.862;2023-05-21T14:50:38;25.70;99.90
52867;DHT22;38739;53.324;6.862;2023-05-21T14:53:07;25.60;99.90
52867;DHT22;38739;53.324;6.862;2023-05-21T14:55:34;25.60;99.90
52867;DHT22;38739;53.324;6.862;2023-05-21T14:58:02;25.80;99.90
52867;DHT22;38739;53.324;6.862;2023-05-21T15:00:29;25.40;99.70
52867;DHT22;38739;53.324;6.862;2023-05-21T15:02:56;25.60;99.90
52867;DHT22;38739;53.324;6.862;2023-05-21T15:05:21;25.60;99.90
52867;DHT22;38739;53.324;6.862;2023-05-21T15:07:47;25.60;99.90
52867;DHT22;38739;53.324;6.862;2023-05-21T15:10:13;25.60;99.90
52867;DHT22;38739;53.324;6.862;2023-05-21T15:12:39;25.60;99.90
52867;DHT22;38739;53.324;6.862;2023-05-21T15:15:06;25.70;99.90
52867;DHT22;38739;53.324;6.862;2023-05-21T15:17:33;25.70;99.50
52867;DHT22;38739;53.324;6.862;2023-05-21T15:20:00;25.90;99.90
52867;DHT22;38739;53.324;6.862;2023-05-21T15:22:26;25.90;99.90
52867;DHT22;38739;53.324;6.862;2023-05-21T15:24:52;25.90;99.50
52867;DHT22;38739;53.324;6.862;2023-05-21T15:27:17;25.80;99.00
52867;DHT22;38739;53.324;6.862;2023-05-21T15:29:43;25.70;99.30
52867;DHT22;38739;53.324;6.862;2023-05-21T15:32:10;25.60;99.80
52867;DHT22;38739;53.324;6.862;2023-05-21T15:34:36;25.60;99.90
52867;DHT22;38739;53.324;6.862;2023-05-21T15:37:01;25.50;99.90
52867;DHT22;38739;53.324;6.862;2023-05-21T15:39:28;25.40;99.90
52867;DHT22;38739;53.324;6.862;2023-05-21T15:41:54;25.30;99.90
52867;DHT22;38739;53.324;6.862;2023-05-21T15:44:20;25.20;99.90
52867;DHT22;38739;53.324;6.862;2023-05-21T15:46:46;25.20;99.90
52867;DHT22;38739;53.324;6.862;2023-05-21T15:49:15;25.20;99.90